sensor_id;sensor_type;location;lat;lon;timestamp;temperature;humidity
11925;DHT22;6022;48.768;18.608;2023-05-16T00:00:31;9.70;99.90
11925;DHT22;6022;48.768;18.608;2023-05-16T00:03:01;9.50;99.90
11925;DHT22;6022;48.768;18.608;2023-05-16T00:05:30;9.50;99.90
11925;DHT22;6022;48.768;18.608;2023-05-16T00:07:57;9.90;99.90
11925;DHT22;6022;48.768;18.608;2023-05-16T00:10:25;9.40;99.90
11925;DHT22;6022;48.768;18.608;2023-05-16T00:12:54;9.40;99.90
11925;DHT22;6022;48.768;18.608;2023-05-16T00:15:24;9.30;99.90
11925;DHT22;6022;48.768;18.608;2023-05-16T00:17:55;9.30;99.90
11925;DHT22;6022;48.768;18.608;2023-05-16T00:20:27;9.10;99.90
11925;DHT22;6022;48.768;18.608;2023-05-16T00:22:56;9.10;99.90
11925;DHT22;6022;48.768;18.608;2023-05-16T00:25:28;9.30;99.90
11925;DHT22;6022;48.768;18.608;2023-05-16T00:27:57;9.30;99.90
11925;DHT22;6022;48.768;18.608;2023-05-16T00:30:25;9.30;99.90
11925;DHT22;6022;48.768;18.608;2023-05-16T00:32:54;9.30;99.90
11925;DHT22;6022;48.768;18.608;2023-05-16T00:35:22;9.20;99.90
11925;DHT22;6022;48.768;18.608;2023-05-16T00:37:52;9.30;99.90
11925;DHT22;6022;48.768;18.608;2023-05-16T00:40:21;9.20;99.90
11925;DHT22;6022;48.768;18.608;2023-05-16T00:42:49;8.80;99.90
11925;DHT22;6022;48.768;18.608;2023-05-16T00:45:18;9.20;99.90
11925;DHT22;6022;48.768;18.608;2023-05-16T00:47:47;9.20;99.90
11925;DHT22;6022;48.768;18.608;2023-05-16T00:50:16;9.10;99.90
11925;DHT22;6022;48.768;18.608;2023-05-16T00:52:46;9.10;99.90
11925;DHT22;6022;48.768;18.608;2023-05-16T00:55:16;9.10;99.90
11925;DHT22;6022;48.768;18.608;2023-05-16T00:57:44;8.90;99.90
11925;DHT22;6022;48.768;18.608;2023-05-16T01:00:13;9.10;99.90
11925;DHT22;6022;48.768;18.608;2023-05-16T01:02:46;9.20;99.90
11925;DHT22;6022;48.768;18.608;2023-05-16T01:05:14;9.10;99.90
11925;DHT22;6022;48.768;18.608;2023-05-16T01:07:43;9.10;99.90
11925;DHT22;6022;48.768;18.608;2023-05-16T01:10:12;9.10;99.90
11925;DHT22;6022;48.768;18.608;2023-05-16T01:12:47;9.20;99.90
11925;DHT22;6022;48.768;18.608;2023-05-16T01:15:31;9.20;99.90
11925;DHT22;6022;48.768;18.608;2023-05-16T01:19:01;8.90;99.90
11925;DHT22;6022;48.768;18.608;2023-05-16T01:21:51;9.20;99.90
11925;DHT22;6022;48.768;18.608;2023-05-16T01:24:33;8.90;99.90
11925;DHT22;6022;48.768;18.608;2023-05-16T01:27:07;9.30;99.90
11925;DHT22;6022;48.768;18.608;2023-05-16T01:29:38;9.30;99.90
11925;DHT22;6022;48.768;18.608;2023-05-16T01:32:06;9.50;99.90
11925;DHT22;6022;48.768;18.608;2023-05-16T01:34:41;9.20;99.90
11925;DHT22;6022;48.768;18.608;2023-05-16T01:39:58;9.40;99.90
11925;DHT22;6022;48.768;18.608;2023-05-16T01:42:36;9.40;99.90
11925;DHT22;6022;48.768;18.608;2023-05-16T01:45:14;9.20;99.90
11925;DHT22;6022;48.768;18.608;2023-05-16T01:47:52;9.20;99.90
11925;DHT22;6022;48.768;18.608;2023-05-16T01:50:32;9.10;99.90
11925;DHT22;6022;48.768;18.608;2023-05-16T01:53:08;9.20;99.90
11925;DHT22;6022;48.768;18.608;2023-05-16T01:55:46;9.10;99.90
11925;DHT22;6022;48.768;18.608;2023-05-16T01:58:24;9.20;99.90
11925;DHT22;6022;48.768;18.608;2023-05-16T02:01:03;9.00;99.90
11925;DHT22;6022;48.768;18.608;2023-05-16T02:03:36;8.90;99.90
11925;DHT22;6022;48.768;18.608;2023-05-16T02:06:06;9.40;99.90
11925;DHT22;6022;48.768;18.608;2023-05-16T02:08:34;9.20;99.90
11925;DHT22;6022;48.768;18.608;2023-05-16T02:11:02;9.10;99.90
11925;DHT22;6022;48.768;18.608;2023-05-16T02:13:29;9.10;99.90
11925;DHT22;6022;48.768;18.608;2023-05-16T02:16:03;9.00;99.90
11925;DHT22;6022;48.768;18.608;2023-05-16T02:18:38;9.20;99.90
11925;DHT22;6022;48.768;18.608;2023-05-16T02:21:12;9.30;99.90
11925;DHT22;6022;48.768;18.608;2023-05-16T02:23:45;9.30;99.90
11925;DHT22;6022;48.768;18.608;2023-05-16T02:26:15;9.20;99.90
11925;DHT22;6022;48.768;18.608;2023-05-16T02:28:46;9.30;99.90
11925;DHT22;6022;48.768;18.608;2023-05-16T02:31:29;9.30;99.90
11925;DHT22;6022;48.768;18.608;2023-05-16T02:34:05;9.20;99.90
11925;DHT22;6022;48.768;18.608;2023-05-16T02:36:34;9.40;99.90
11925;DHT22;6022;48.768;18.608;2023-05-16T02:39:02;9.30;99.90
11925;DHT22;6022;48.768;18.608;2023-05-16T02:41:30;9.30;99.90
11925;DHT22;6022;48.768;18.608;2023-05-16T02:43:59;9.20;99.90
11925;DHT22;6022;48.768;18.608;2023-05-16T02:46:29;8.90;99.90
11925;DHT22;6022;48.768;18.608;2023-05-16T02:49:00;9.30;99.90
11925;DHT22;6022;48.768;18.608;2023-05-16T02:51:28;9.30;99.90
11925;DHT22;6022;48.768;18.608;2023-05-16T02:53:57;9.20;99.90
11925;DHT22;6022;48.768;18.608;2023-05-16T02:56:28;9.00;99.90
11925;DHT22;6022;48.768;18.608;2023-05-16T02:58:57;9.20;99.90
11925;DHT22;6022;48.768;18.608;2023-05-16T03:01:27;9.20;99.90
11925;DHT22;6022;48.768;18.608;2023-05-16T03:03:57;9.30;99.90
11925;DHT22;6022;48.768;18.608;2023-05-16T03:06:26;9.20;99.90
11925;DHT22;6022;48.768;18.608;2023-05-16T03:08:54;9.20;99.90
11925;DHT22;6022;48.768;18.608;2023-05-16T03:11:22;9.10;99.90
11925;DHT22;6022;48.768;18.608;2023-05-16T03:13:52;9.20;99.90
11925;DHT22;6022;48.768;18.608;2023-05-16T03:16:19;9.20;99.90
11925;DHT22;6022;48.768;18.608;2023-05-16T03:18:48;9.40;99.90
11925;DHT22;6022;48.768;18.608;2023-05-16T03:21:16;9.50;99.90
11925;DHT22;6022;48.768;18.608;2023-05-16T03:23:44;9.20;99.90
11925;DHT22;6022;48.768;18.608;2023-05-16T03:26:12;9.30;99.90
11925;DHT22;6022;48.768;18.608;2023-05-16T03:28:43;9.20;99.90
11925;DHT22;6022;48.768;18.608;2023-05-16T03:31:11;9.30;99.90
11925;DHT22;6022;48.768;18.608;2023-05-16T03:33:39;9.30;99.90
11925;DHT22;6022;48.768;18.608;2023-05-16T03:36:08;9.40;99.90
11925;DHT22;6022;48.768;18.608;2023-05-16T03:38:37;9.40;99.90
11925;DHT22;6022;48.768;18.608;2023-05-16T03:41:06;9.50;99.90
11925;DHT22;6022;48.768;18.608;2023-05-16T03:43:35;9.40;99.90
11925;DHT22;6022;48.768;18.608;2023-05-16T03:46:03;9.50;99.90
11925;DHT22;6022;48.768;18.608;2023-05-16T03:48:32;9.40;99.90
11925;DHT22;6022;48.768;18.608;2023-05-16T03:51:00;9.40;99.90
11925;DHT22;6022;48.768;18.608;2023-05-16T03:53:28;9.50;99.90
11925;DHT22;6022;48.768;18.608;2023-05-16T03:55:59;9.90;99.90
11925;DHT22;6022;48.768;18.608;2023-05-16T03:58:30;9.60;99.90
11925;DHT22;6022;48.768;18.608;2023-05-16T04:00:58;9.60;99.90
11925;DHT22;6022;48.768;18.608;2023-05-16T04:03:27;9.50;99.90
11925;DHT22;6022;48.768;18.608;2023-05-16T04:05:56;9.70;99.90
11925;DHT22;6022;48.768;18.608;2023-05-16T04:08:25;9.60;99.90
11925;DHT22;6022;48.768;18.608;2023-05-16T04:10:54;9.70;99.90
11925;DHT22;6022;48.768;18.608;2023-05-16T04:13:22;10.00;99.90
11925;DHT22;6022;48.768;18.608;2023-05-16T04:15:52;9.60;99.90
11925;DHT22;6022;48.768;18.608;2023-05-16T04:18:20;9.70;99.90
11925;DHT22;6022;48.768;18.608;2023-05-16T04:20:49;9.80;99.90
11925;DHT22;6022;48.768;18.608;2023-05-16T04:23:18;9.90;99.90
11925;DHT22;6022;48.768;18.608;2023-05-16T04:25:46;10.00;99.90
11925;DHT22;6022;48.768;18.608;2023-05-16T04:28:15;10.10;99.90
11925;DHT22;6022;48.768;18.608;2023-05-16T04:30:43;10.20;99.90
11925;DHT22;6022;48.768;18.608;2023-05-16T04:33:13;10.30;99.90
11925;DHT22;6022;48.768;18.608;2023-05-16T04:35:42;10.40;99.90
11925;DHT22;6022;48.768;18.608;2023-05-16T04:38:10;10.40;99.90
11925;DHT22;6022;48.768;18.608;2023-05-16T04:40:39;10.70;99.90
11925;DHT22;6022;48.768;18.608;2023-05-16T04:43:07;10.50;99.90
11925;DHT22;6022;48.768;18.608;2023-05-16T04:45:36;11.00;99.90
11925;DHT22;6022;48.768;18.608;2023-05-16T04:48:05;10.90;99.90
11925;DHT22;6022;48.768;18.608;2023-05-16T04:50:34;11.10;99.90
11925;DHT22;6022;48.768;18.608;2023-05-16T04:53:04;11.50;99.90
11925;DHT22;6022;48.768;18.608;2023-05-16T04:55:33;11.90;99.90
11925;DHT22;6022;48.768;18.608;2023-05-16T04:58:07;11.80;99.90
11925;DHT22;6022;48.768;18.608;2023-05-16T05:00:38;12.20;99.90
11925;DHT22;6022;48.768;18.608;2023-05-16T05:03:07;12.40;99.90
11925;DHT22;6022;48.768;18.608;2023-05-16T05:05:47;12.30;99.90
11925;DHT22;6022;48.768;18.608;2023-05-16T05:08:31;12.40;99.90
11925;DHT22;6022;48.768;18.608;2023-05-16T05:10:59;12.40;99.90
11925;DHT22;6022;48.768;18.608;2023-05-16T05:13:31;12.40;99.90
11925;DHT22;6022;48.768;18.608;2023-05-16T05:16:06;12.40;99.90
11925;DHT22;6022;48.768;18.608;2023-05-16T05:18:36;12.20;99.90
11925;DHT22;6022;48.768;18.608;2023-05-16T05:21:13;12.50;99.90
11925;DHT22;6022;48.768;18.608;2023-05-16T05:23:45;12.60;99.90
11925;DHT22;6022;48.768;18.608;2023-05-16T05:26:15;12.80;99.90
11925;DHT22;6022;48.768;18.608;2023-05-16T05:28:47;13.30;99.90
11925;DHT22;6022;48.768;18.608;2023-05-16T05:31:32;13.30;99.90
11925;DHT22;6022;48.768;18.608;2023-05-16T05:34:02;13.40;99.90
11925;DHT22;6022;48.768;18.608;2023-05-16T05:36:30;13.20;99.90
11925;DHT22;6022;48.768;18.608;2023-05-16T05:39:08;13.10;99.90
11925;DHT22;6022;48.768;18.608;2023-05-16T05:41:36;13.20;99.90
11925;DHT22;6022;48.768;18.608;2023-05-16T05:44:05;13.40;99.90
11925;DHT22;6022;48.768;18.608;2023-05-16T05:46:34;13.40;99.90
11925;DHT22;6022;48.768;18.608;2023-05-16T05:49:03;14.10;99.90
11925;DHT22;6022;48.768;18.608;2023-05-16T05:51:31;15.20;99.90
11925;DHT22;6022;48.768;18.608;2023-05-16T05:54:00;16.50;99.90
11925;DHT22;6022;48.768;18.608;2023-05-16T05:56:31;17.00;99.90
11925;DHT22;6022;48.768;18.608;2023-05-16T05:59:01;17.10;99.90
11925;DHT22;6022;48.768;18.608;2023-05-16T06:01:30;17.50;99.90
11925;DHT22;6022;48.768;18.608;2023-05-16T06:03:58;17.80;99.90
11925;DHT22;6022;48.768;18.608;2023-05-16T06:06:37;18.40;99.90
11925;DHT22;6022;48.768;18.608;2023-05-16T06:09:07;18.10;99.90
11925;DHT22;6022;48.768;18.608;2023-05-16T06:11:35;17.90;99.90
11925;DHT22;6022;48.768;18.608;2023-05-16T06:14:05;17.60;99.90
11925;DHT22;6022;48.768;18.608;2023-05-16T06:16:34;17.50;99.90
11925;DHT22;6022;48.768;18.608;2023-05-16T06:19:20;17.30;99.90
11925;DHT22;6022;48.768;18.608;2023-05-16T06:21:50;16.70;99.90
11925;DHT22;6022;48.768;18.608;2023-05-16T06:24:18;17.30;99.90
11925;DHT22;6022;48.768;18.608;2023-05-16T06:27:03;17.40;99.90
11925;DHT22;6022;48.768;18.608;2023-05-16T06:29:31;17.00;99.90
11925;DHT22;6022;48.768;18.608;2023-05-16T06:32:00;16.90;99.90
11925;DHT22;6022;48.768;18.608;2023-05-16T06:34:33;17.00;99.90
11925;DHT22;6022;48.768;18.608;2023-05-16T06:37:03;16.70;99.90
11925;DHT22;6022;48.768;18.608;2023-05-16T06:39:32;16.90;99.90
11925;DHT22;6022;48.768;18.608;2023-05-16T06:42:01;17.00;99.90
11925;DHT22;6022;48.768;18.608;2023-05-16T06:44:38;17.10;99.90
11925;DHT22;6022;48.768;18.608;2023-05-16T06:47:08;17.00;99.90
11925;DHT22;6022;48.768;18.608;2023-05-16T06:49:36;16.30;99.90
11925;DHT22;6022;48.768;18.608;2023-05-16T06:52:05;16.30;99.90
11925;DHT22;6022;48.768;18.608;2023-05-16T06:54:33;16.50;99.90
11925;DHT22;6022;48.768;18.608;2023-05-16T06:57:01;16.50;99.90
11925;DHT22;6022;48.768;18.608;2023-05-16T06:59:31;16.70;99.90
11925;DHT22;6022;48.768;18.608;2023-05-16T07:01:59;16.60;99.90
11925;DHT22;6022;48.768;18.608;2023-05-16T07:04:31;16.40;99.90
11925;DHT22;6022;48.768;18.608;2023-05-16T07:06:59;16.40;99.90
11925;DHT22;6022;48.768;18.608;2023-05-16T07:09:28;16.50;99.90
11925;DHT22;6022;48.768;18.608;2023-05-16T07:11:57;16.40;99.90
11925;DHT22;6022;48.768;18.608;2023-05-16T07:14:27;16.60;99.90
11925;DHT22;6022;48.768;18.608;2023-05-16T07:17:03;16.20;99.90
11925;DHT22;6022;48.768;18.608;2023-05-16T07:19:39;15.70;99.90
11925;DHT22;6022;48.768;18.608;2023-05-16T07:22:08;15.90;99.90
11925;DHT22;6022;48.768;18.608;2023-05-16T07:24:40;16.00;99.90
11925;DHT22;6022;48.768;18.608;2023-05-16T07:27:09;15.80;99.90
11925;DHT22;6022;48.768;18.608;2023-05-16T07:29:40;16.20;99.90
11925;DHT22;6022;48.768;18.608;2023-05-16T07:32:08;16.20;99.90
11925;DHT22;6022;48.768;18.608;2023-05-16T07:34:36;16.20;99.90
11925;DHT22;6022;48.768;18.608;2023-05-16T07:37:05;16.70;99.90
11925;DHT22;6022;48.768;18.608;2023-05-16T07:39:45;17.60;99.90
11925;DHT22;6022;48.768;18.608;2023-05-16T07:42:12;17.70;99.90
11925;DHT22;6022;48.768;18.608;2023-05-16T07:44:41;17.60;99.90
11925;DHT22;6022;48.768;18.608;2023-05-16T07:47:11;17.50;99.90
11925;DHT22;6022;48.768;18.608;2023-05-16T07:49:40;17.50;99.90
11925;DHT22;6022;48.768;18.608;2023-05-16T07:52:10;17.30;99.90
11925;DHT22;6022;48.768;18.608;2023-05-16T07:54:38;17.30;99.90
11925;DHT22;6022;48.768;18.608;2023-05-16T07:57:15;17.40;99.90
11925;DHT22;6022;48.768;18.608;2023-05-16T07:59:44;17.00;99.90
11925;DHT22;6022;48.768;18.608;2023-05-16T08:02:13;17.40;99.90
11925;DHT22;6022;48.768;18.608;2023-05-16T08:04:43;17.40;99.90
11925;DHT22;6022;48.768;18.608;2023-05-16T08:07:16;17.20;99.90
11925;DHT22;6022;48.768;18.608;2023-05-16T08:09:45;17.10;99.90
11925;DHT22;6022;48.768;18.608;2023-05-16T08:12:20;16.80;99.90
11925;DHT22;6022;48.768;18.608;2023-05-16T08:15:14;16.60;99.90
11925;DHT22;6022;48.768;18.608;2023-05-16T08:17:42;16.80;99.90
11925;DHT22;6022;48.768;18.608;2023-05-16T08:20:11;16.80;99.90
11925;DHT22;6022;48.768;18.608;2023-05-16T08:22:40;16.80;99.90
11925;DHT22;6022;48.768;18.608;2023-05-16T08:25:10;16.90;99.90
11925;DHT22;6022;48.768;18.608;2023-05-16T08:27:41;16.90;99.90
11925;DHT22;6022;48.768;18.608;2023-05-16T08:30:11;17.20;99.90
11925;DHT22;6022;48.768;18.608;2023-05-16T08:32:41;16.90;99.90
11925;DHT22;6022;48.768;18.608;2023-05-16T08:35:09;16.90;99.90
11925;DHT22;6022;48.768;18.608;2023-05-16T08:37:38;16.90;99.90
11925;DHT22;6022;48.768;18.608;2023-05-16T08:40:08;16.90;99.90
11925;DHT22;6022;48.768;18.608;2023-05-16T08:42:39;16.80;99.90
11925;DHT22;6022;48.768;18.608;2023-05-16T08:45:11;16.70;99.90
11925;DHT22;6022;48.768;18.608;2023-05-16T08:47:41;17.10;99.90
11925;DHT22;6022;48.768;18.608;2023-05-16T08:50:15;16.90;99.90
11925;DHT22;6022;48.768;18.608;2023-05-16T08:52:46;16.90;99.90
11925;DHT22;6022;48.768;18.608;2023-05-16T08:55:20;17.10;99.90
11925;DHT22;6022;48.768;18.608;2023-05-16T08:57:54;17.00;99.90
11925;DHT22;6022;48.768;18.608;2023-05-16T09:00:26;16.90;99.90
11925;DHT22;6022;48.768;18.608;2023-05-16T09:02:55;17.00;99.90
11925;DHT22;6022;48.768;18.608;2023-05-16T09:05:33;16.80;99.90
11925;DHT22;6022;48.768;18.608;2023-05-16T09:08:04;16.60;99.90
11925;DHT22;6022;48.768;18.608;2023-05-16T09:10:32;16.60;99.90
11925;DHT22;6022;48.768;18.608;2023-05-16T09:13:00;16.60;99.90
11925;DHT22;6022;48.768;18.608;2023-05-16T09:15:31;17.10;99.90
11925;DHT22;6022;48.768;18.608;2023-05-16T09:18:01;16.80;99.90
11925;DHT22;6022;48.768;18.608;2023-05-16T09:20:32;16.80;99.90
11925;DHT22;6022;48.768;18.608;2023-05-16T09:23:00;16.80;99.90
11925;DHT22;6022;48.768;18.608;2023-05-16T09:25:32;16.80;99.90
11925;DHT22;6022;48.768;18.608;2023-05-16T09:28:01;16.50;99.90
11925;DHT22;6022;48.768;18.608;2023-05-16T09:30:33;16.90;99.90
11925;DHT22;6022;48.768;18.608;2023-05-16T09:33:06;16.60;99.90
11925;DHT22;6022;48.768;18.608;2023-05-16T09:35:38;16.80;99.90
11925;DHT22;6022;48.768;18.608;2023-05-16T09:38:16;16.70;99.90
11925;DHT22;6022;48.768;18.608;2023-05-16T09:40:44;16.70;99.90
11925;DHT22;6022;48.768;18.608;2023-05-16T09:43:15;16.60;99.90
11925;DHT22;6022;48.768;18.608;2023-05-16T09:45:48;16.60;99.90
11925;DHT22;6022;48.768;18.608;2023-05-16T09:48:24;16.50;99.90
11925;DHT22;6022;48.768;18.608;2023-05-16T09:50:56;16.40;99.90
11925;DHT22;6022;48.768;18.608;2023-05-16T09:53:30;16.70;99.90
11925;DHT22;6022;48.768;18.608;2023-05-16T09:56:04;16.40;99.90
11925;DHT22;6022;48.768;18.608;2023-05-16T09:58:35;16.30;99.90
11925;DHT22;6022;48.768;18.608;2023-05-16T10:01:06;16.30;99.90
11925;DHT22;6022;48.768;18.608;2023-05-16T10:03:37;16.20;99.90
11925;DHT22;6022;48.768;18.608;2023-05-16T10:06:08;16.00;99.90
11925;DHT22;6022;48.768;18.608;2023-05-16T10:08:41;16.10;99.90
11925;DHT22;6022;48.768;18.608;2023-05-16T10:11:10;16.10;99.90
11925;DHT22;6022;48.768;18.608;2023-05-16T10:13:40;16.30;99.90
11925;DHT22;6022;48.768;18.608;2023-05-16T10:16:13;16.20;99.90
11925;DHT22;6022;48.768;18.608;2023-05-16T10:18:42;16.20;99.90
11925;DHT22;6022;48.768;18.608;2023-05-16T10:21:14;15.90;99.90
11925;DHT22;6022;48.768;18.608;2023-05-16T10:23:47;15.90;99.90
11925;DHT22;6022;48.768;18.608;2023-05-16T10:26:19;15.90;99.90
11925;DHT22;6022;48.768;18.608;2023-05-16T10:28:50;16.10;99.90
11925;DHT22;6022;48.768;18.608;2023-05-16T10:31:24;16.10;99.90
11925;DHT22;6022;48.768;18.608;2023-05-16T10:33:52;16.00;99.90
11925;DHT22;6022;48.768;18.608;2023-05-16T10:36:21;16.00;99.90
11925;DHT22;6022;48.768;18.608;2023-05-16T10:38:53;15.90;99.90
11925;DHT22;6022;48.768;18.608;2023-05-16T10:41:22;15.80;99.90
11925;DHT22;6022;48.768;18.608;2023-05-16T10:43:58;15.90;99.90
11925;DHT22;6022;48.768;18.608;2023-05-16T10:46:27;15.50;99.90
11925;DHT22;6022;48.768;18.608;2023-05-16T10:48:58;15.60;99.90
11925;DHT22;6022;48.768;18.608;2023-05-16T10:51:45;15.80;99.90
11925;DHT22;6022;48.768;18.608;2023-05-16T10:54:13;15.60;99.90
11925;DHT22;6022;48.768;18.608;2023-05-16T10:56:41;15.80;99.90
11925;DHT22;6022;48.768;18.608;2023-05-16T10:59:24;15.70;99.90
11925;DHT22;6022;48.768;18.608;2023-05-16T11:01:55;15.40;99.90
11925;DHT22;6022;48.768;18.608;2023-05-16T11:04:53;15.80;99.90
11925;DHT22;6022;48.768;18.608;2023-05-16T11:07:34;15.40;99.90
11925;DHT22;6022;48.768;18.608;2023-05-16T11:12:47;15.60;99.90
11925;DHT22;6022;48.768;18.608;2023-05-16T11:15:20;15.60;99.90
11925;DHT22;6022;48.768;18.608;2023-05-16T11:18:15;15.20;99.90
11925;DHT22;6022;48.768;18.608;2023-05-16T11:20:45;15.50;99.90
11925;DHT22;6022;48.768;18.608;2023-05-16T11:23:21;15.60;99.90
11925;DHT22;6022;48.768;18.608;2023-05-16T11:25:56;15.40;99.90
11925;DHT22;6022;48.768;18.608;2023-05-16T11:28:27;15.60;99.90
11925;DHT22;6022;48.768;18.608;2023-05-16T11:31:03;15.20;99.90
11925;DHT22;6022;48.768;18.608;2023-05-16T11:33:33;15.10;99.90
11925;DHT22;6022;48.768;18.608;2023-05-16T11:36:05;15.40;99.90
11925;DHT22;6022;48.768;18.608;2023-05-16T11:38:42;15.30;99.90
11925;DHT22;6022;48.768;18.608;2023-05-16T11:41:10;15.20;99.90
11925;DHT22;6022;48.768;18.608;2023-05-16T11:43:44;15.20;99.90
11925;DHT22;6022;48.768;18.608;2023-05-16T11:46:14;15.00;99.90
11925;DHT22;6022;48.768;18.608;2023-05-16T11:48:44;15.20;99.90
11925;DHT22;6022;48.768;18.608;2023-05-16T11:51:17;15.30;99.90
11925;DHT22;6022;48.768;18.608;2023-05-16T11:53:48;15.40;99.90
11925;DHT22;6022;48.768;18.608;2023-05-16T11:56:16;15.40;99.90
11925;DHT22;6022;48.768;18.608;2023-05-16T11:58:46;15.20;99.90
11925;DHT22;6022;48.768;18.608;2023-05-16T12:01:15;15.00;99.90
11925;DHT22;6022;48.768;18.608;2023-05-16T12:03:55;15.20;99.90
11925;DHT22;6022;48.768;18.608;2023-05-16T12:06:24;15.30;99.90
11925;DHT22;6022;48.768;18.608;2023-05-16T12:08:53;15.30;99.90
11925;DHT22;6022;48.768;18.608;2023-05-16T12:11:23;15.30;99.90
11925;DHT22;6022;48.768;18.608;2023-05-16T12:13:53;15.20;99.90
11925;DHT22;6022;48.768;18.608;2023-05-16T12:16:22;15.20;99.90
11925;DHT22;6022;48.768;18.608;2023-05-16T12:18:52;15.20;99.90
11925;DHT22;6022;48.768;18.608;2023-05-16T12:21:20;15.20;99.90
11925;DHT22;6022;48.768;18.608;2023-05-16T12:23:49;14.90;99.90
11925;DHT22;6022;48.768;18.608;2023-05-16T12:26:30;14.70;99.90
11925;DHT22;6022;48.768;18.608;2023-05-16T12:29:00;14.80;99.90
11925;DHT22;6022;48.768;18.608;2023-05-16T12:31:35;14.90;99.90
11925;DHT22;6022;48.768;18.608;2023-05-16T12:34:16;14.90;99.90
11925;DHT22;6022;48.768;18.608;2023-05-16T12:36:52;14.60;99.90
11925;DHT22;6022;48.768;18.608;2023-05-16T12:39:21;14.60;99.90
11925;DHT22;6022;48.768;18.608;2023-05-16T12:41:52;14.70;99.90
11925;DHT22;6022;48.768;18.608;2023-05-16T12:44:20;14.50;99.90
11925;DHT22;6022;48.768;18.608;2023-05-16T12:46:50;14.70;99.90
11925;DHT22;6022;48.768;18.608;2023-05-16T12:49:22;15.10;99.90
11925;DHT22;6022;48.768;18.608;2023-05-16T12:51:55;14.70;99.90
11925;DHT22;6022;48.768;18.608;2023-05-16T12:54:29;15.10;99.90
11925;DHT22;6022;48.768;18.608;2023-05-16T12:57:00;14.90;99.90
11925;DHT22;6022;48.768;18.608;2023-05-16T12:59:33;14.80;99.90
11925;DHT22;6022;48.768;18.608;2023-05-16T13:02:02;15.10;99.90
11925;DHT22;6022;48.768;18.608;2023-05-16T13:04:35;14.90;99.90
11925;DHT22;6022;48.768;18.608;2023-05-16T13:07:04;15.00;99.90
11925;DHT22;6022;48.768;18.608;2023-05-16T13:09:32;14.80;99.90
11925;DHT22;6022;48.768;18.608;2023-05-16T13:12:01;14.80;99.90
11925;DHT22;6022;48.768;18.608;2023-05-16T13:14:30;14.70;99.90
11925;DHT22;6022;48.768;18.608;2023-05-16T13:16:59;14.70;99.90
11925;DHT22;6022;48.768;18.608;2023-05-16T13:19:27;14.70;99.90
11925;DHT22;6022;48.768;18.608;2023-05-16T13:21:58;14.90;99.90
11925;DHT22;6022;48.768;18.608;2023-05-16T13:24:28;14.80;99.90
11925;DHT22;6022;48.768;18.608;2023-05-16T13:26:57;14.50;99.90
11925;DHT22;6022;48.768;18.608;2023-05-16T13:29:31;14.70;99.90
11925;DHT22;6022;48.768;18.608;2023-05-16T13:32:03;14.50;99.90
11925;DHT22;6022;48.768;18.608;2023-05-16T13:34:39;14.60;99.90
11925;DHT22;6022;48.768;18.608;2023-05-16T13:37:10;14.50;99.90
11925;DHT22;6022;48.768;18.608;2023-05-16T13:39:50;14.40;99.90
11925;DHT22;6022;48.768;18.608;2023-05-16T13:42:23;14.50;99.90
11925;DHT22;6022;48.768;18.608;2023-05-16T13:44:52;14.50;99.90
11925;DHT22;6022;48.768;18.608;2023-05-16T13:47:21;14.10;99.90
11925;DHT22;6022;48.768;18.608;2023-05-16T13:49:49;14.30;99.90
11925;DHT22;6022;48.768;18.608;2023-05-16T13:52:20;13.90;99.90
11925;DHT22;6022;48.768;18.608;2023-05-16T13:54:51;14.00;99.90
11925;DHT22;6022;48.768;18.608;2023-05-16T13:57:20;14.30;99.90
11925;DHT22;6022;48.768;18.608;2023-05-16T13:59:54;14.10;99.90
11925;DHT22;6022;48.768;18.608;2023-05-16T14:02:44;14.10;99.90
11925;DHT22;6022;48.768;18.608;2023-05-16T14:05:12;14.20;99.90
11925;DHT22;6022;48.768;18.608;2023-05-16T14:07:45;13.90;99.90
11925;DHT22;6022;48.768;18.608;2023-05-16T14:10:16;13.90;99.90
11925;DHT22;6022;48.768;18.608;2023-05-16T14:12:44;13.90;99.90
11925;DHT22;6022;48.768;18.608;2023-05-16T14:15:12;14.10;99.90
11925;DHT22;6022;48.768;18.608;2023-05-16T14:17:45;13.70;99.90
11925;DHT22;6022;48.768;18.608;2023-05-16T14:20:16;13.60;99.90
11925;DHT22;6022;48.768;18.608;2023-05-16T14:22:46;13.70;99.90
11925;DHT22;6022;48.768;18.608;2023-05-16T14:25:16;14.00;99.90
11925;DHT22;6022;48.768;18.608;2023-05-16T14:27:45;13.70;99.90
11925;DHT22;6022;48.768;18.608;2023-05-16T14:30:19;13.90;99.90
11925;DHT22;6022;48.768;18.608;2023-05-16T14:32:52;13.80;99.90
11925;DHT22;6022;48.768;18.608;2023-05-16T14:35:21;13.90;99.90
11925;DHT22;6022;48.768;18.608;2023-05-16T14:37:53;13.80;99.90
11925;DHT22;6022;48.768;18.608;2023-05-16T14:40:27;13.90;99.90
11925;DHT22;6022;48.768;18.608;2023-05-16T14:42:55;13.90;99.90
11925;DHT22;6022;48.768;18.608;2023-05-16T14:45:24;14.10;99.90
11925;DHT22;6022;48.768;18.608;2023-05-16T14:47:53;13.80;99.90
11925;DHT22;6022;48.768;18.608;2023-05-16T14:50:22;12.70;99.90
11925;DHT22;6022;48.768;18.608;2023-05-16T14:52:54;13.80;99.90
11925;DHT22;6022;48.768;18.608;2023-05-16T14:55:23;13.40;99.90
11925;DHT22;6022;48.768;18.608;2023-05-16T14:57:52;13.80;99.90
11925;DHT22;6022;48.768;18.608;2023-05-16T15:00:29;13.50;99.90
11925;DHT22;6022;48.768;18.608;2023-05-16T15:02:59;13.80;99.90
11925;DHT22;6022;48.768;18.608;2023-05-16T15:05:31;14.00;99.90
11925;DHT22;6022;48.768;18.608;2023-05-16T15:08:01;13.70;99.90
11925;DHT22;6022;48.768;18.608;2023-05-16T15:10:31;13.80;99.90
11925;DHT22;6022;48.768;18.608;2023-05-16T15:12:59;13.80;99.90
11925;DHT22;6022;48.768;18.608;2023-05-16T15:15:27;13.50;99.90
11925;DHT22;6022;48.768;18.608;2023-05-16T15:17:56;13.60;99.90
11925;DHT22;6022;48.768;18.608;2023-05-16T15:20:24;13.80;99.90
11925;DHT22;6022;48.768;18.608;2023-05-16T15:22:57;13.90;99.90
11925;DHT22;6022;48.768;18.608;2023-05-16T15:25:30;13.90;99.90
11925;DHT22;6022;48.768;18.608;2023-05-16T15:27:59;13.90;99.90
11925;DHT22;6022;48.768;18.608;2023-05-16T15:30:50;13.90;99.90
11925;DHT22;6022;48.768;18.608;2023-05-16T15:33:19;13.90;99.90
11925;DHT22;6022;48.768;18.608;2023-05-16T15:35:51;13.90;99.90
11925;DHT22;6022;48.768;18.608;2023-05-16T15:38:19;13.90;99.90
11925;DHT22;6022;48.768;18.608;2023-05-16T15:40:49;13.90;99.90
11925;DHT22;6022;48.768;18.608;2023-05-16T15:43:37;14.00;99.90
11925;DHT22;6022;48.768;18.608;2023-05-16T15:46:08;13.60;99.90
11925;DHT22;6022;48.768;18.608;2023-05-16T15:48:40;13.90;99.90
11925;DHT22;6022;48.768;18.608;2023-05-16T15:51:11;13.80;99.90
11925;DHT22;6022;48.768;18.608;2023-05-16T15:53:47;13.70;99.90
11925;DHT22;6022;48.768;18.608;2023-05-16T15:56:21;13.80;99.90
11925;DHT22;6022;48.768;18.608;2023-05-16T15:58:51;13.60;99.90
11925;DHT22;6022;48.768;18.608;2023-05-16T16:01:24;13.70;99.90
11925;DHT22;6022;48.768;18.608;2023-05-16T16:03:52;13.80;99.90
11925;DHT22;6022;48.768;18.608;2023-05-16T16:06:25;13.80;99.90